createdAt,value
2018-04-01T00:02:23.256Z,1.90
2018-04-01T00:11:02.865Z,2.83
2018-04-01T00:13:35.391Z,1.53
2018-04-01T00:19:04.977Z,1.90
2018-04-01T00:21:31.311Z,3.13
2018-04-01T00:23:57.657Z,4.33
2018-04-01T00:26:23.827Z,1.70
2018-04-01T00:28:49.945Z,2.13
2018-04-01T00:31:32.240Z,3.27
2018-04-01T00:37:01.740Z,4.13
2018-04-01T00:39:33.285Z,2.70
2018-04-01T00:41:59.421Z,2.80
2018-04-01T00:44:33.577Z,2.80
2018-04-01T01:02:03.119Z,4.77
2018-04-01T01:04:33.150Z,3.57
2018-04-01T01:07:00.008Z,4.80
2018-04-01T01:09:43.890Z,2.40
2018-04-01T01:15:13.609Z,3.13
2018-04-01T01:17:41.548Z,2.37
2018-04-01T01:20:08.317Z,2.07
2018-04-01T01:22:44.228Z,2.40
2018-04-01T01:25:10.309Z,2.60
2018-04-01T01:27:36.397Z,6.50
2018-04-01T01:30:02.492Z,2.73
2018-04-01T01:32:28.940Z,2.80
2018-04-01T01:34:55.124Z,1.70
2018-04-01T01:37:21.279Z,1.70
2018-04-01T01:39:47.733Z,2.30
2018-04-01T01:42:14.741Z,4.97
2018-04-01T01:44:46.056Z,6.30
2018-04-01T01:47:14.192Z,1.80
2018-04-01T01:49:48.168Z,3.87
2018-04-01T01:52:33.284Z,2.07
2018-04-01T01:55:03.538Z,1.83
2018-04-01T01:57:35.491Z,6.37
2018-04-01T02:00:01.813Z,3.53
2018-04-01T02:02:27.994Z,3.03
2018-04-01T02:04:54.259Z,4.57
2018-04-01T02:07:20.868Z,2.97
2018-04-01T02:09:55.971Z,1.80
2018-04-01T02:12:22.300Z,2.93
2018-04-01T02:14:48.435Z,1.77
2018-04-01T02:19:49.523Z,2.87
2018-04-01T02:22:15.863Z,1.90
2018-04-01T02:24:42.051Z,2.23
2018-04-01T02:27:08.465Z,2.70
2018-04-01T02:29:34.684Z,14.03
2018-04-01T02:34:59.802Z,1.70
2018-04-01T02:37:26.130Z,2.63
2018-04-01T02:39:52.359Z,3.63
2018-04-01T02:42:18.522Z,4.10
2018-04-01T02:44:44.597Z,3.20
2018-04-01T02:47:10.701Z,2.30
2018-04-01T02:52:12.121Z,2.57
2018-04-01T02:54:38.263Z,4.37
2018-04-01T02:57:04.630Z,2.67
2018-04-01T02:59:30.836Z,3.23
2018-04-01T03:01:57.239Z,3.00
2018-04-01T03:04:23.306Z,3.93
2018-04-01T03:06:49.388Z,3.50
2018-04-01T03:09:15.732Z,2.70
2018-04-01T03:12:02.234Z,3.23
2018-04-01T03:14:28.379Z,1.80
2018-04-01T03:16:56.612Z,2.43
2018-04-01T03:22:26.109Z,1.67
2018-04-01T03:24:52.285Z,3.17
2018-04-01T03:27:34.528Z,2.10
2018-04-01T03:30:01.023Z,7.13
2018-04-01T03:32:27.073Z,1.80
2018-04-01T03:37:46.300Z,2.40
2018-04-01T03:40:33.222Z,4.80
2018-04-01T03:42:59.494Z,2.60
2018-04-01T03:45:25.606Z,2.10
2018-04-01T03:47:51.655Z,2.87
2018-04-01T03:50:18.784Z,5.23
2018-04-01T03:52:44.837Z,2.33
2018-04-01T03:57:46.073Z,6.40
2018-04-01T04:03:15.373Z,2.50
2018-04-01T04:05:41.468Z,9.20
2018-04-01T04:08:07.756Z,5.40
2018-04-01T04:10:34.836Z,3.03
2018-04-01T04:16:04.910Z,2.77
2018-04-01T04:18:32.874Z,4.77
2018-04-01T04:20:59.189Z,7.83
2018-04-01T04:23:25.531Z,5.90
2018-04-01T04:25:51.713Z,2.40
2018-04-01T04:28:17.752Z,5.67
2018-04-01T04:30:44.118Z,2.57
2018-04-01T04:33:10.169Z,8.97
2018-04-01T04:35:36.248Z,9.00
2018-04-01T04:38:02.979Z,6.20
2018-04-01T04:40:29.202Z,4.30
2018-04-01T04:42:55.281Z,4.17
2018-04-01T04:45:21.557Z,4.00
2018-04-01T04:47:48.975Z,2.83
2018-04-01T04:50:15.046Z,4.03
2018-04-01T04:55:13.402Z,9.40
2018-04-01T04:57:39.514Z,4.97
2018-04-01T05:00:05.606Z,6.53
2018-04-01T05:02:32.183Z,5.53
2018-04-01T05:05:02.866Z,9.63
2018-04-01T05:07:28.895Z,9.80
2018-04-01T05:10:02.506Z,6.33
2018-04-01T05:12:28.552Z,7.30
2018-04-01T05:14:54.666Z,5.87
2018-04-01T05:17:20.783Z,8.23
2018-04-01T05:19:46.871Z,7.50
2018-04-01T05:22:13.036Z,8.00
2018-04-01T05:24:39.163Z,9.27
2018-04-01T05:27:05.221Z,6.67
2018-04-01T05:29:31.280Z,6.57
2018-04-01T05:31:57.391Z,6.70
2018-04-01T05:34:23.428Z,5.43
2018-04-01T05:36:49.497Z,7.50
2018-04-01T05:39:17.732Z,4.30
2018-04-01T05:41:46.980Z,5.10
2018-04-01T05:44:13.325Z,7.70
2018-04-01T05:46:39.759Z,6.50
2018-04-01T05:49:05.873Z,6.70
2018-04-01T05:51:33.038Z,4.87
2018-04-01T05:53:59.130Z,7.90
2018-04-01T05:56:26.112Z,10.20
2018-04-01T05:58:52.344Z,6.23
2018-04-01T06:01:18.460Z,6.40
2018-04-01T06:03:45.776Z,9.30
2018-04-01T06:06:12.738Z,8.33
2018-04-01T06:13:54.709Z,11.23
2018-04-01T06:19:01.987Z,12.73
2018-04-01T06:21:34.108Z,11.00
2018-04-01T06:24:03.833Z,9.40
2018-04-01T06:26:32.960Z,8.00
2018-04-01T06:28:59.288Z,7.00
2018-04-01T06:31:32.320Z,12.40
2018-04-01T06:34:01.439Z,17.27
2018-04-01T06:36:27.811Z,10.00
2018-04-01T06:38:54.089Z,13.13
2018-04-01T06:41:20.302Z,11.03
2018-04-01T06:43:46.377Z,13.83
2018-04-01T06:46:14.705Z,9.90
2018-04-01T06:48:41.050Z,15.20
2018-04-01T06:51:08.650Z,12.47
2018-04-01T06:53:34.715Z,17.07
2018-04-01T06:56:02.203Z,15.80
2018-04-01T06:58:33.165Z,13.23
2018-04-01T07:01:01.630Z,13.07
2018-04-01T07:03:31.172Z,15.10
2018-04-01T07:06:02.242Z,14.57
2018-04-01T07:08:28.454Z,13.67
2018-04-01T07:10:54.762Z,13.30
2018-04-01T07:13:20.850Z,13.77
2018-04-01T07:15:46.909Z,17.10
2018-04-01T07:18:12.960Z,13.77
2018-04-01T07:20:39.132Z,12.30
2018-04-01T07:23:05.189Z,12.40
2018-04-01T07:25:31.301Z,13.63
2018-04-01T07:27:57.549Z,13.30
2018-04-01T07:30:23.570Z,10.50
2018-04-01T07:32:49.615Z,15.80
2018-04-01T07:35:15.824Z,11.13
2018-04-01T07:37:41.953Z,8.20
2018-04-01T07:40:09.256Z,11.33
2018-04-01T07:42:35.351Z,10.93
2018-04-01T07:45:01.683Z,10.10
2018-04-01T07:47:27.746Z,8.90
2018-04-01T07:50:01.725Z,8.93
2018-04-01T07:52:28.881Z,13.67
2018-04-01T07:54:55.862Z,9.03
2018-04-01T07:57:22.062Z,9.67
2018-04-01T07:59:48.141Z,10.37
2018-04-01T08:02:14.523Z,10.23
2018-04-01T08:04:40.718Z,13.87
2018-04-01T08:07:07.037Z,11.27
2018-04-01T08:09:33.173Z,10.03
2018-04-01T08:12:02.177Z,11.80
2018-04-01T08:14:28.302Z,11.50
2018-04-01T08:16:54.482Z,12.10
2018-04-01T08:19:20.600Z,12.40
2018-04-01T08:21:46.674Z,12.03
2018-04-01T08:24:12.721Z,11.70
2018-04-01T08:26:43.304Z,11.40
2018-04-01T08:29:10.127Z,10.60
2018-04-01T08:31:37.011Z,15.03
2018-04-01T08:34:03.103Z,15.13
2018-04-01T08:36:29.186Z,12.00
2018-04-01T08:38:55.268Z,12.80
2018-04-01T08:41:21.360Z,14.30
2018-04-01T08:43:48.079Z,15.73
2018-04-01T08:46:18.960Z,12.30
2018-04-01T08:48:48.149Z,12.63
2018-04-01T08:51:14.957Z,15.80
2018-04-01T08:53:40.997Z,14.83
2018-04-01T08:56:07.083Z,13.33
2018-04-01T08:58:33.984Z,16.53
2018-04-01T09:01:00.085Z,13.13
2018-04-01T09:03:28.066Z,14.37
2018-04-01T09:05:56.062Z,15.67
2018-04-01T09:10:59.417Z,14.70
2018-04-01T09:13:25.530Z,14.03
2018-04-01T09:16:02.073Z,10.93
2018-04-01T09:18:34.577Z,15.03
2018-04-01T09:21:02.583Z,14.00
2018-04-01T09:23:28.911Z,18.83
2018-04-01T09:25:55.297Z,14.87
2018-04-01T09:28:24.003Z,18.13
2018-04-01T09:30:50.883Z,16.07
2018-04-01T09:33:18.359Z,14.50
2018-04-01T09:35:46.340Z,15.17
2018-04-01T09:38:20.886Z,15.60
2018-04-01T09:49:55.877Z,15.30
2018-04-01T09:58:19.584Z,13.83
2018-04-01T10:03:49.460Z,11.70
2018-04-01T10:06:17.234Z,10.90
2018-04-01T10:08:43.680Z,13.20
2018-04-01T10:11:17.897Z,14.53
2018-04-01T10:13:49.509Z,12.20
2018-04-01T10:16:18.681Z,12.43
2018-04-01T10:18:47.227Z,11.40
2018-04-01T10:24:19.334Z,10.33
2018-04-01T10:26:47.146Z,8.00
2018-04-01T10:37:21.692Z,8.97
2018-04-01T10:39:49.342Z,9.27
2018-04-01T10:42:19.991Z,5.63
2018-04-01T10:44:47.975Z,9.73
2018-04-01T10:47:15.695Z,3.80
2018-04-01T10:49:42.229Z,3.70
2018-04-01T10:52:11.454Z,3.67
2018-04-01T10:54:37.744Z,1.57
2018-04-01T10:57:03.814Z,4.27
2018-04-01T10:59:31.838Z,5.07
2018-04-01T11:01:57.954Z,4.93
2018-04-01T11:04:25.098Z,11.93
2018-04-01T11:06:52.188Z,3.73
2018-04-01T11:09:19.405Z,8.07
2018-04-01T11:11:48.521Z,5.53
2018-04-01T11:14:19.631Z,8.23
2018-04-01T11:16:48.854Z,4.13
2018-04-01T11:19:19.439Z,5.10
2018-04-01T11:21:46.516Z,5.30
2018-04-01T11:24:19.031Z,4.63
2018-04-01T11:26:51.562Z,4.80
2018-04-01T11:32:21.052Z,6.23
2018-04-01T11:34:49.304Z,5.10
2018-04-01T11:37:19.476Z,18.63
2018-04-01T11:39:48.000Z,6.63
2018-04-01T11:42:18.568Z,4.83
2018-04-01T11:44:46.130Z,4.20
2018-04-01T11:47:16.886Z,4.67
2018-04-01T11:49:44.417Z,3.57
2018-04-01T11:52:19.354Z,8.70
2018-04-01T11:54:48.726Z,4.67
2018-04-01T11:59:49.154Z,4.20
2018-04-01T12:02:15.603Z,4.87
2018-04-01T12:04:50.048Z,5.63
2018-04-01T12:07:33.130Z,4.33
2018-04-01T12:10:02.288Z,4.90
2018-04-01T12:12:30.974Z,5.73
2018-04-01T12:15:02.733Z,4.73
2018-04-01T12:17:28.965Z,3.63
2018-04-01T12:20:03.055Z,4.10
2018-04-01T12:22:34.030Z,5.13
2018-04-01T12:25:00.642Z,5.60
2018-04-01T12:27:33.835Z,4.67
2018-04-01T12:33:02.797Z,4.43
2018-04-01T12:35:32.494Z,4.73
2018-04-01T12:38:02.386Z,7.60
2018-04-01T12:40:32.449Z,4.57
2018-04-01T12:43:04.667Z,10.00
2018-04-01T12:45:32.788Z,3.80
2018-04-01T12:48:05.113Z,5.30
2018-04-01T12:50:32.533Z,4.60
2018-04-01T12:52:59.922Z,5.00
2018-04-01T12:55:26.177Z,5.63
2018-04-01T12:57:56.549Z,3.70
2018-04-01T13:00:28.221Z,3.80
2018-04-01T13:02:54.896Z,4.07
2018-04-01T13:05:23.054Z,3.17
2018-04-01T13:07:49.120Z,3.77
2018-04-01T13:10:15.202Z,4.67
2018-04-01T13:12:41.433Z,3.27
2018-04-01T13:15:08.318Z,3.53
2018-04-01T13:17:34.371Z,3.83
2018-04-01T13:20:00.674Z,3.27
2018-04-01T13:22:26.756Z,4.20
2018-04-01T13:24:54.217Z,8.93
2018-04-01T13:27:20.537Z,8.23
2018-04-01T13:32:50.358Z,4.30
2018-04-01T13:35:16.827Z,65.03
2018-04-01T13:37:44.105Z,15.20
2018-04-01T13:46:17.605Z,4.57
2018-04-01T13:48:49.530Z,3.40
2018-04-01T13:54:18.533Z,3.80
2018-04-01T13:56:44.737Z,5.10
2018-04-01T13:59:10.771Z,15.33
2018-04-01T14:01:36.893Z,5.50
2018-04-01T14:04:03.006Z,6.73
2018-04-01T14:06:31.420Z,5.93
2018-04-01T14:08:58.239Z,6.60
2018-04-01T14:11:24.712Z,5.40
2018-04-01T14:13:50.773Z,7.87
2018-04-01T14:16:16.838Z,9.33
2018-04-01T14:18:43.800Z,7.37
2018-04-01T14:21:10.146Z,8.90
2018-04-01T14:23:37.373Z,8.63
2018-04-01T14:26:03.453Z,6.63
2018-04-01T14:28:37.576Z,7.80
2018-04-01T14:31:03.637Z,6.80
2018-04-01T14:33:29.667Z,6.00
2018-04-01T14:36:13.580Z,7.27
2018-04-01T14:38:40.047Z,7.20
2018-04-01T14:41:07.011Z,7.10
2018-04-01T14:43:33.859Z,8.50
2018-04-01T14:46:00.042Z,6.80
2018-04-01T14:48:28.258Z,6.93
2018-04-01T14:50:55.973Z,4.67
2018-04-01T14:53:23.212Z,6.67
2018-04-01T14:55:56.439Z,7.67
2018-04-01T14:58:22.509Z,10.10
2018-04-01T15:00:48.562Z,7.20
2018-04-01T15:03:14.582Z,8.00
2018-04-01T15:05:40.725Z,7.23
2018-04-01T15:08:06.791Z,6.97
2018-04-01T15:10:33.180Z,21.47
2018-04-01T15:13:00.341Z,13.57
2018-04-01T15:15:26.479Z,6.23
2018-04-01T15:17:54.412Z,5.87
2018-04-01T15:20:20.526Z,5.60
2018-04-01T15:22:46.625Z,5.50
2018-04-01T15:25:33.630Z,5.33
2018-04-01T15:27:59.726Z,5.97
2018-04-01T15:30:25.826Z,4.40
2018-04-01T15:32:52.588Z,5.10
2018-04-01T15:35:19.434Z,7.83
2018-04-01T15:37:47.592Z,6.30
2018-04-01T15:40:14.958Z,6.70
2018-04-01T15:42:45.832Z,9.67
2018-04-01T15:45:16.026Z,9.90
2018-04-01T15:47:46.934Z,11.03
2018-04-01T15:50:14.270Z,11.27
2018-04-01T15:52:42.957Z,11.07
2018-04-01T15:55:18.985Z,11.47
2018-04-01T15:57:46.100Z,8.70
2018-04-01T16:00:16.734Z,11.17
2018-04-01T16:02:48.038Z,11.43
2018-04-01T16:05:16.278Z,8.90
2018-04-01T16:07:49.837Z,62.07
2018-04-01T16:10:26.690Z,7.87
2018-04-01T16:13:03.582Z,52.50
2018-04-01T16:15:29.912Z,11.03
2018-04-01T16:17:56.652Z,20.43
2018-04-01T16:20:22.744Z,10.20
2018-04-01T16:22:48.904Z,73.17
2018-04-01T16:25:19.553Z,23.97
2018-04-01T16:27:48.112Z,10.00
2018-04-01T16:30:15.814Z,11.23
2018-04-01T16:32:46.633Z,14.33
2018-04-01T16:35:17.415Z,14.53
2018-04-01T16:37:49.690Z,14.43
2018-04-01T16:40:19.679Z,16.00
2018-04-01T16:42:49.825Z,43.53
2018-04-01T16:45:26.554Z,52.60
2018-04-01T16:48:03.986Z,12.97
2018-04-01T16:53:33.876Z,14.40
2018-04-01T16:56:02.288Z,30.53
2018-04-01T17:01:03.398Z,35.20
2018-04-01T17:03:32.714Z,17.03
2018-04-01T17:06:03.156Z,24.50
2018-04-01T17:08:33.345Z,23.50
2018-04-01T17:11:03.559Z,77.80
2018-04-01T17:13:30.642Z,26.23
2018-04-01T17:16:01.390Z,43.97
2018-04-01T17:18:27.463Z,60.53
2018-04-01T17:20:55.313Z,63.63
2018-04-01T17:23:21.483Z,55.50
2018-04-01T17:25:47.744Z,38.90
2018-04-01T17:28:14.994Z,107.47
2018-04-01T17:30:44.857Z,15.10
2018-04-01T17:36:04.906Z,76.10
2018-04-01T17:38:32.820Z,234.70
2018-04-01T17:41:02.832Z,188.90
2018-04-01T17:43:34.958Z,44.13
2018-04-01T17:46:11.692Z,24.87
2018-04-01T17:48:44.843Z,26.73
2018-04-01T17:51:18.127Z,63.43
2018-04-01T17:56:16.909Z,81.60
2018-04-01T17:58:42.955Z,56.13
2018-04-01T18:01:09.009Z,56.60
2018-04-01T18:03:35.045Z,47.07
2018-04-01T18:06:01.221Z,57.33
2018-04-01T18:08:27.282Z,118.57
2018-04-01T18:10:53.322Z,22.37
2018-04-01T18:13:19.386Z,18.97
2018-04-01T18:15:45.459Z,43.37
2018-04-01T18:18:11.529Z,61.83
2018-04-01T18:20:37.583Z,21.87
2018-04-01T18:23:03.689Z,18.57
2018-04-01T18:25:29.736Z,20.17
2018-04-01T18:27:55.798Z,19.03
2018-04-01T18:30:22.010Z,21.10
2018-04-01T18:32:48.100Z,34.53
2018-04-01T18:35:14.296Z,19.83
2018-04-01T18:37:40.736Z,25.20
2018-04-01T18:40:07.776Z,20.07
2018-04-01T18:42:33.925Z,20.03
2018-04-01T18:45:00.690Z,20.03
2018-04-01T18:47:26.800Z,23.50
2018-04-01T18:49:52.951Z,19.40
2018-04-01T18:52:20.062Z,20.43
2018-04-01T18:54:47.256Z,22.87
2018-04-01T18:57:15.337Z,22.53
2018-04-01T18:59:41.458Z,29.43
2018-04-01T19:02:07.486Z,25.83
2018-04-01T19:04:33.596Z,23.17
2018-04-01T19:06:59.618Z,21.63
2018-04-01T19:09:25.645Z,21.10
2018-04-01T19:11:52.459Z,23.13
2018-04-01T19:14:18.529Z,26.80
2018-04-01T19:17:06.848Z,26.40
2018-04-01T19:19:33.080Z,33.73
2018-04-01T19:21:59.345Z,30.50
2018-04-01T19:24:25.694Z,32.63
2018-04-01T19:26:52.983Z,36.97
2018-04-01T19:29:19.263Z,30.60
2018-04-01T19:31:45.974Z,31.93
2018-04-01T19:34:12.418Z,31.97
2018-04-01T19:36:38.640Z,34.80
2018-04-01T19:39:04.908Z,36.33
2018-04-01T19:41:31.181Z,35.80
2018-04-01T19:43:57.473Z,37.17
2018-04-01T19:46:23.739Z,34.53
2018-04-01T19:48:50.704Z,35.67
2018-04-01T19:51:17.741Z,37.10
2018-04-01T19:53:44.008Z,35.80
2018-04-01T19:56:10.304Z,32.73
2018-04-01T19:58:36.558Z,30.77
2018-04-01T20:01:02.898Z,32.17
2018-04-01T20:03:29.245Z,28.40
2018-04-01T20:05:55.538Z,30.27
2018-04-01T20:08:22.904Z,27.67
2018-04-01T20:10:49.162Z,29.00
2018-04-01T20:13:20.153Z,25.70
2018-04-01T20:15:46.393Z,23.20
2018-04-01T20:18:12.659Z,27.70
2018-04-01T20:20:39.719Z,27.27
2018-04-01T20:23:06.687Z,24.67
2018-04-01T20:25:32.981Z,24.03
2018-04-01T20:27:59.249Z,22.90
2018-04-01T20:30:25.598Z,24.70
2018-04-01T20:32:52.540Z,22.87
2018-04-01T20:35:18.793Z,35.60
2018-04-01T20:37:45.074Z,55.50
2018-04-01T20:40:11.324Z,52.23
2018-04-01T20:42:37.535Z,26.53
2018-04-01T20:45:03.761Z,37.60
2018-04-01T20:47:29.991Z,31.37
2018-04-01T20:49:56.168Z,35.00
2018-04-01T20:52:22.363Z,35.07
2018-04-01T20:54:48.537Z,66.00
2018-04-01T20:57:15.514Z,36.33
2018-04-01T20:59:42.474Z,38.23
2018-04-01T21:02:08.745Z,42.60
2018-04-01T21:04:34.961Z,52.73
2018-04-01T21:07:02.665Z,38.57
2018-04-01T21:09:28.910Z,42.00
2018-04-01T21:11:55.384Z,43.07
2018-04-01T21:14:22.435Z,33.60
2018-04-01T21:16:48.660Z,36.87
2018-04-01T21:19:15.076Z,43.60
2018-04-01T21:21:41.517Z,39.27
2018-04-01T21:24:07.845Z,39.13
2018-04-01T21:26:34.036Z,36.17
2018-04-01T21:29:00.552Z,38.40
2018-04-01T21:31:26.907Z,35.20
2018-04-01T21:33:53.389Z,34.97
2018-04-01T21:36:19.582Z,36.60
2018-04-01T21:38:45.896Z,43.27
2018-04-01T21:41:12.176Z,39.63
2018-04-01T21:43:38.468Z,40.30
2018-04-01T21:46:04.748Z,41.13
2018-04-01T21:48:31.024Z,37.40
2018-04-01T21:50:57.358Z,39.60
2018-04-01T21:53:23.659Z,41.57
2018-04-01T21:55:50.141Z,39.37
2018-04-01T21:58:16.419Z,44.33
2018-04-01T22:00:42.698Z,40.97
2018-04-01T22:03:08.978Z,40.37
2018-04-01T22:05:35.340Z,46.03
2018-04-01T22:08:01.633Z,42.93
2018-04-01T22:10:27.863Z,43.60
2018-04-01T22:12:54.110Z,46.80
2018-04-01T22:15:20.352Z,42.80
2018-04-01T22:17:46.574Z,43.00
2018-04-01T22:20:12.844Z,47.97
2018-04-01T22:22:51.109Z,40.70
2018-04-01T22:25:17.417Z,47.27
2018-04-01T22:27:43.680Z,42.73
2018-04-01T22:30:09.945Z,45.67
2018-04-01T22:32:36.204Z,41.20
2018-04-01T22:35:02.501Z,45.13
2018-04-01T22:37:28.715Z,45.67
2018-04-01T22:39:54.908Z,51.63
2018-04-01T22:42:21.100Z,52.60
2018-04-01T22:44:47.335Z,41.23
2018-04-01T22:47:13.714Z,48.67
2018-04-01T22:49:41.782Z,46.97
2018-04-01T22:52:08.334Z,51.37
2018-04-01T22:54:34.634Z,45.30
2018-04-01T22:57:01.233Z,48.53
2018-04-01T22:59:27.545Z,54.40
2018-04-01T23:01:58.002Z,44.10
2018-04-01T23:04:24.547Z,53.23
2018-04-01T23:06:51.203Z,58.37
2018-04-01T23:09:17.758Z,48.87
2018-04-01T23:11:44.018Z,49.67
2018-04-01T23:14:10.364Z,54.07
2018-04-01T23:16:36.587Z,55.37
2018-04-01T23:19:02.925Z,54.07
2018-04-01T23:21:29.188Z,57.33
2018-04-01T23:23:55.400Z,57.63
2018-04-01T23:26:21.674Z,54.50
2018-04-01T23:28:48.040Z,54.03
2018-04-01T23:31:14.448Z,61.37
2018-04-01T23:33:40.720Z,55.20
2018-04-01T23:36:06.953Z,60.57
2018-04-01T23:38:33.220Z,55.50
2018-04-01T23:41:00.242Z,59.50
2018-04-01T23:43:26.559Z,55.43
2018-04-01T23:45:53.488Z,64.53
2018-04-01T23:48:19.766Z,54.70
2018-04-01T23:50:46.023Z,51.93
2018-04-01T23:53:12.308Z,53.67
2018-04-01T23:55:38.617Z,58.80
2018-04-01T23:58:04.916Z,51.30
